createdAt,value
2022-08-26T00:00:06.820Z,14.7
2022-08-26T00:05:06.839Z,15
2022-08-26T00:10:06.859Z,16.4
2022-08-26T00:15:13.615Z,16
2022-08-26T00:20:13.613Z,16
2022-08-26T00:25:13.616Z,15.8
2022-08-26T00:30:14.016Z,15.8
2022-08-26T00:36:06.837Z,15.7
2022-08-26T00:41:13.686Z,15.7
2022-08-26T00:47:06.878Z,15.6
2022-08-26T00:52:06.843Z,15.5
2022-08-26T00:57:16.210Z,15.5
2022-08-26T01:03:11.448Z,15.5
2022-08-26T01:08:13.889Z,15.5
2022-08-26T01:14:06.868Z,15.5
2022-08-26T01:19:13.743Z,15.6
2022-08-26T01:25:06.862Z,15.7
2022-08-26T01:30:06.868Z,15.8
2022-08-26T01:35:06.869Z,15.8
2022-08-26T01:40:13.734Z,16.2
2022-08-26T01:46:06.971Z,16.2
2022-08-26T01:51:06.958Z,16.6
2022-08-26T01:56:06.880Z,17.1
2022-08-26T02:01:13.811Z,17.3
2022-08-26T02:07:07.408Z,17.2
2022-08-26T02:12:13.760Z,17.2
2022-08-26T02:18:06.876Z,17.8
2022-08-26T02:23:13.944Z,18.1
2022-08-26T02:28:14.217Z,18.2
2022-08-26T02:34:06.919Z,18.4
2022-08-26T02:39:19.511Z,18.5
2022-08-26T02:44:13.726Z,18.4
2022-08-26T02:49:13.876Z,18.6
2022-08-26T02:54:14.509Z,18.8
2022-08-26T03:00:06.891Z,18.7
2022-08-26T03:05:14.012Z,18.8
2022-08-26T03:11:06.890Z,19
2022-08-26T03:16:06.945Z,19.5
2022-08-26T03:21:06.926Z,19.9
2022-08-26T03:26:13.898Z,20.3
2022-08-26T03:32:07.119Z,20.4
2022-08-26T03:37:06.929Z,20.5
2022-08-26T03:42:14.349Z,21.1
2022-08-26T03:48:06.915Z,21
2022-08-26T03:53:14.404Z,20.9
2022-08-26T03:59:07.619Z,21
2022-08-26T04:04:06.950Z,21.4
2022-08-26T04:09:13.697Z,21.3
2022-08-26T04:14:14.260Z,21.3
2022-08-26T04:20:06.921Z,21.1
2022-08-26T04:25:06.961Z,21.3
2022-08-26T04:30:07.990Z,21.5
2022-08-26T04:35:14.042Z,21.3
2022-08-26T04:41:14.770Z,21.3
2022-08-26T04:46:06.971Z,21.1
2022-08-26T04:51:06.932Z,22
2022-08-26T04:56:06.947Z,21.3
2022-08-26T05:01:13.738Z,21.4
2022-08-26T05:06:14.097Z,21.5
2022-08-26T05:12:06.925Z,21.4
2022-08-26T05:17:15.060Z,21.2
2022-08-26T05:23:07.086Z,21.3
2022-08-26T05:28:13.726Z,21
2022-08-26T05:33:13.982Z,21.2
2022-08-26T05:38:14.224Z,21.1
2022-08-26T05:44:06.949Z,21.1
2022-08-26T05:49:12.768Z,21.1
2022-08-26T05:54:14.377Z,21.1
2022-08-26T06:00:06.942Z,21
2022-08-26T06:05:07.663Z,20.9
2022-08-26T06:10:33.294Z,21.2
2022-08-26T06:15:07.006Z,21
2022-08-26T06:20:13.769Z,21.2
2022-08-26T06:25:14.454Z,21
2022-08-26T06:31:07.018Z,21.2
2022-08-26T06:36:14.270Z,20.9
2022-08-26T06:41:14.449Z,21.1
2022-08-26T06:47:06.954Z,21
2022-08-26T06:52:14.446Z,21
2022-08-26T06:58:06.970Z,20.8
2022-08-26T07:03:15.451Z,20.8
2022-08-26T07:09:07.000Z,21
2022-08-26T07:14:14.570Z,20.7
2022-08-26T07:20:07.005Z,20.8
2022-08-26T07:25:13.750Z,20.8
2022-08-26T07:30:14.741Z,20.7
2022-08-26T07:35:14.578Z,20.6
2022-08-26T07:41:06.973Z,20.9
2022-08-26T07:46:07.006Z,20.7
2022-08-26T07:51:14.073Z,20.6
2022-08-26T07:56:14.684Z,20.6
2022-08-26T08:02:06.972Z,20.4
2022-08-26T08:07:07.531Z,20.4
2022-08-26T08:12:14.169Z,20.5
2022-08-26T08:17:13.781Z,20.5
2022-08-26T08:22:17.232Z,20.7
2022-08-26T08:27:14.283Z,20.9
2022-08-26T08:33:06.992Z,20.7
2022-08-26T08:38:13.786Z,20.9
2022-08-26T08:43:13.790Z,20.9
2022-08-26T08:49:06.985Z,20.7
2022-08-26T08:54:06.989Z,20.6
2022-08-26T08:59:07.001Z,20.4
2022-08-26T09:04:07.012Z,20.5
2022-08-26T09:09:13.806Z,20.6
2022-08-26T09:14:14.367Z,20.5
2022-08-26T09:19:14.469Z,20.5
2022-08-26T09:25:07.039Z,20.6
2022-08-26T09:30:13.819Z,20.2
2022-08-26T09:36:07.008Z,20.3
2022-08-26T09:41:14.011Z,20.2
2022-08-26T09:46:14.392Z,20.1
2022-08-26T09:52:07.030Z,20.8
2022-08-26T09:57:14.567Z,20
2022-08-26T10:03:07.030Z,20.3
2022-08-26T10:08:13.838Z,20.4
2022-08-26T10:14:07.030Z,20.4
2022-08-26T10:19:07.034Z,20.3
2022-08-26T10:24:07.049Z,20.2
2022-08-26T10:29:14.436Z,20.2
2022-08-26T10:35:07.046Z,20.1
2022-08-26T10:40:13.863Z,20.3
2022-08-26T10:45:15.315Z,20
2022-08-26T10:50:13.925Z,20
2022-08-26T10:56:18.832Z,20.2
2022-08-26T11:01:10.267Z,20.1
2022-08-26T11:06:07.072Z,20.1
2022-08-26T11:11:14.475Z,20.1
2022-08-26T11:17:07.046Z,20.1
2022-08-26T11:22:13.905Z,20.2
2022-08-26T11:27:14.041Z,20.4
2022-08-26T11:33:07.175Z,19.9
2022-08-26T11:38:14.605Z,19.9
2022-08-26T11:44:07.057Z,19.8
2022-08-26T11:49:07.062Z,19.5
2022-08-26T11:54:14.567Z,19.5
2022-08-26T12:00:08.431Z,19.4
2022-08-26T12:05:14.465Z,19.6
2022-08-26T12:11:07.077Z,19.4
2022-08-26T12:16:13.915Z,19.2
2022-08-26T12:21:13.873Z,19.2
2022-08-26T12:26:14.143Z,19.3
2022-08-26T12:31:14.457Z,19.3
2022-08-26T12:37:07.248Z,19.2
2022-08-26T12:42:07.116Z,19.3
2022-08-26T12:47:14.429Z,19.4
2022-08-26T12:53:07.106Z,19.3
2022-08-26T12:58:07.319Z,19
2022-08-26T13:03:14.714Z,19
2022-08-26T13:09:07.085Z,19.5
2022-08-26T13:14:07.473Z,19.5
2022-08-26T13:19:10.609Z,19.3
2022-08-26T13:24:14.217Z,18.9
2022-08-26T13:30:07.103Z,19.1
2022-08-26T13:35:07.145Z,19
2022-08-26T13:40:14.110Z,19.2
2022-08-26T13:46:07.094Z,19.2
2022-08-26T13:51:08.911Z,19
2022-08-26T13:56:14.743Z,19.1
2022-08-26T14:02:07.094Z,19.1
2022-08-26T14:07:07.117Z,19.1
2022-08-26T14:12:13.895Z,19
2022-08-26T14:17:14.055Z,19.2
2022-08-26T14:22:14.398Z,19.2
2022-08-26T14:27:14.478Z,19.1
2022-08-26T14:33:07.102Z,19.2
2022-08-26T14:38:07.105Z,19.3
2022-08-26T14:43:13.880Z,19.4
2022-08-26T14:48:13.906Z,19.3
2022-08-26T14:53:14.485Z,19.4
2022-08-26T14:59:07.106Z,19.4
2022-08-26T15:04:07.143Z,19.2
2022-08-26T15:09:13.900Z,19.4
2022-08-26T15:15:07.129Z,19.6
2022-08-26T15:20:07.120Z,19.3
2022-08-26T15:25:13.914Z,19.5
2022-08-26T15:30:14.394Z,19.6
2022-08-26T15:36:07.150Z,19.8
2022-08-26T15:41:14.131Z,19.7
2022-08-26T15:46:14.563Z,19.8
2022-08-26T15:52:07.161Z,19.8
2022-08-26T15:57:16.420Z,19.7
2022-08-26T16:03:07.156Z,19.8
2022-08-26T16:08:13.982Z,19.6
2022-08-26T16:13:14.994Z,19.5
2022-08-26T16:19:07.739Z,19.6
2022-08-26T16:24:13.930Z,19.6
2022-08-26T16:29:14.460Z,19.4
2022-08-26T16:35:07.158Z,19.4
2022-08-26T16:40:07.240Z,19.5
2022-08-26T16:45:07.162Z,19.4
2022-08-26T16:50:07.248Z,19.4
2022-08-26T16:55:13.942Z,19.3
2022-08-26T17:00:14.279Z,19.2
2022-08-26T17:05:14.410Z,19.1
2022-08-26T17:11:07.155Z,19
2022-08-26T17:16:07.238Z,19.1
2022-08-26T17:21:07.202Z,19.1
2022-08-26T17:26:14.037Z,19.1
2022-08-26T17:31:14.068Z,19.3
2022-08-26T17:36:14.023Z,19.1
2022-08-26T17:41:14.190Z,19.1
2022-08-26T17:47:07.206Z,19.2
2022-08-26T17:52:11.358Z,19
2022-08-26T17:57:14.371Z,19.2
2022-08-26T18:02:14.335Z,19.2
2022-08-26T18:08:07.205Z,19.2
2022-08-26T18:13:13.975Z,19.3
2022-08-26T18:19:07.197Z,19.3
2022-08-26T18:24:14.661Z,19.4
2022-08-26T18:30:07.205Z,19.4
2022-08-26T18:35:13.973Z,19.4
2022-08-26T18:40:14.018Z,19.2
2022-08-26T18:45:16.415Z,19.3
2022-08-26T18:51:07.222Z,19.3
2022-08-26T18:56:07.217Z,19.3
2022-08-26T19:01:14.926Z,19.1
2022-08-26T19:07:07.250Z,19.1
2022-08-26T19:12:13.976Z,18.9
2022-08-26T19:17:14.283Z,19
2022-08-26T19:22:14.511Z,18.9
2022-08-26T19:28:07.216Z,19
2022-08-26T19:33:07.253Z,19
2022-08-26T19:38:07.248Z,19
2022-08-26T19:43:14.008Z,18.9
2022-08-26T19:48:14.315Z,18.9
2022-08-26T19:54:07.211Z,19
2022-08-26T19:59:07.217Z,18.9
2022-08-26T20:04:07.236Z,18.8
2022-08-26T20:09:14.012Z,18.9
2022-08-26T20:14:14.316Z,18.8
2022-08-26T20:20:07.210Z,19.1
2022-08-26T20:25:07.244Z,18.9
2022-08-26T20:30:07.246Z,18.8
2022-08-26T20:35:07.254Z,18.8
2022-08-26T20:40:07.329Z,18.8
2022-08-26T20:45:14.050Z,19.1
2022-08-26T20:51:07.250Z,19
2022-08-26T20:56:14.049Z,19
2022-08-26T21:01:14.521Z,19
2022-08-26T21:07:07.255Z,19.1
2022-08-26T21:12:14.016Z,19.3
2022-08-26T21:17:14.405Z,19.3
2022-08-26T21:22:14.773Z,19.5
2022-08-26T21:28:07.239Z,19.6
2022-08-26T21:33:07.256Z,19.4
2022-08-26T21:38:14.556Z,19.5
2022-08-26T21:43:27.778Z,19.5
2022-08-26T21:49:07.246Z,19.5
2022-08-26T21:54:10.698Z,19.6
2022-08-26T21:59:14.105Z,19.7
2022-08-26T22:05:07.263Z,19.6
2022-08-26T22:10:07.270Z,19.8
2022-08-26T22:15:14.058Z,19.6
2022-08-26T22:20:16.478Z,19.7
2022-08-26T22:26:07.257Z,20.1
2022-08-26T22:31:07.293Z,20
2022-08-26T22:36:14.186Z,19.8
2022-08-26T22:41:14.172Z,19.9
2022-08-26T22:46:14.838Z,20
2022-08-26T22:52:07.304Z,20.1
2022-08-26T22:57:14.145Z,20.2
2022-08-26T23:03:07.315Z,20.5
2022-08-26T23:08:07.314Z,20.3
2022-08-26T23:13:07.287Z,20.3
2022-08-26T23:18:14.362Z,20.5
2022-08-26T23:23:14.827Z,20.3
2022-08-26T23:29:07.317Z,20.4
2022-08-26T23:34:14.058Z,20.4
2022-08-26T23:39:14.080Z,20.2
2022-08-26T23:45:07.494Z,20.2
2022-08-26T23:50:07.312Z,20.3
2022-08-26T23:55:14.109Z,20
